sensor_id;sensor_type;location;lat;lon;timestamp;pressure;altitude;pressure_sealevel;temperature;humidity
49063;BME280;34876;51.464;-0.150;2023-03-05T00:02:11;102528.11;;;16.75;32.38
49063;BME280;34876;51.464;-0.150;2023-03-05T00:04:41;102522.63;;;16.75;32.38
49063;BME280;34876;51.464;-0.150;2023-03-05T00:07:10;102522.53;;;16.71;32.49
49063;BME280;34876;51.464;-0.150;2023-03-05T00:09:39;102523.44;;;16.73;32.36
49063;BME280;34876;51.464;-0.150;2023-03-05T00:12:08;102526.34;;;16.73;32.36
49063;BME280;34876;51.464;-0.150;2023-03-05T00:14:37;102518.93;;;16.73;32.44
49063;BME280;34876;51.464;-0.150;2023-03-05T00:17:13;102515.68;;;16.73;32.35
49063;BME280;34876;51.464;-0.150;2023-03-05T00:19:41;102513.04;;;16.74;32.35
49063;BME280;34876;51.464;-0.150;2023-03-05T00:22:11;102512.23;;;16.72;32.35
49063;BME280;34876;51.464;-0.150;2023-03-05T00:24:39;102509.27;;;16.72;32.38
49063;BME280;34876;51.464;-0.150;2023-03-05T00:27:09;102510.90;;;16.72;32.40
49063;BME280;34876;51.464;-0.150;2023-03-05T00:29:39;102507.90;;;16.74;32.28
49063;BME280;34876;51.464;-0.150;2023-03-05T00:32:09;102506.57;;;16.73;32.33
49063;BME280;34876;51.464;-0.150;2023-03-05T00:34:40;102504.61;;;16.73;32.32
49063;BME280;34876;51.464;-0.150;2023-03-05T00:37:09;102501.83;;;16.73;32.31
49063;BME280;34876;51.464;-0.150;2023-03-05T00:39:38;102496.67;;;16.74;32.32
49063;BME280;34876;51.464;-0.150;2023-03-05T00:42:08;102493.80;;;16.75;32.27
49063;BME280;34876;51.464;-0.150;2023-03-05T00:44:39;102492.00;;;16.75;32.32
49063;BME280;34876;51.464;-0.150;2023-03-05T00:47:08;102494.92;;;16.75;32.30
49063;BME280;34876;51.464;-0.150;2023-03-05T00:49:38;102494.09;;;16.74;32.28
49063;BME280;34876;51.464;-0.150;2023-03-05T00:52:08;102490.45;;;16.75;32.22
49063;BME280;34876;51.464;-0.150;2023-03-05T00:54:37;102488.70;;;16.75;32.28
49063;BME280;34876;51.464;-0.150;2023-03-05T00:57:07;102484.77;;;16.60;32.40
49063;BME280;34876;51.464;-0.150;2023-03-05T00:59:36;102482.80;;;16.74;32.22
49063;BME280;34876;51.464;-0.150;2023-03-05T01:03:35;102478.00;;;16.77;32.17
49063;BME280;34876;51.464;-0.150;2023-03-05T01:06:06;102476.98;;;16.77;32.20
49063;BME280;34876;51.464;-0.150;2023-03-05T01:08:37;102475.65;;;16.77;32.22
49063;BME280;34876;51.464;-0.150;2023-03-05T01:11:07;102468.62;;;16.76;32.24
49063;BME280;34876;51.464;-0.150;2023-03-05T01:13:39;102464.05;;;16.76;32.21
49063;BME280;34876;51.464;-0.150;2023-03-05T01:16:09;102462.35;;;16.77;32.17
49063;BME280;34876;51.464;-0.150;2023-03-05T01:18:40;102463.31;;;16.77;32.22
49063;BME280;34876;51.464;-0.150;2023-03-05T01:21:10;102458.70;;;16.75;32.17
49063;BME280;34876;51.464;-0.150;2023-03-05T01:23:39;102455.15;;;16.77;32.17
49063;BME280;34876;51.464;-0.150;2023-03-05T01:26:10;102455.10;;;16.77;32.19
49063;BME280;34876;51.464;-0.150;2023-03-05T01:28:40;102452.72;;;16.76;32.16
49063;BME280;34876;51.464;-0.150;2023-03-05T01:31:09;102450.64;;;16.79;32.16
49063;BME280;34876;51.464;-0.150;2023-03-05T01:33:40;102447.96;;;16.79;32.16
49063;BME280;34876;51.464;-0.150;2023-03-05T01:36:12;102439.75;;;16.78;32.11
49063;BME280;34876;51.464;-0.150;2023-03-05T01:38:44;102434.79;;;16.78;32.10
49063;BME280;34876;51.464;-0.150;2023-03-05T01:41:15;102431.50;;;16.77;32.15
49063;BME280;34876;51.464;-0.150;2023-03-05T01:43:47;102427.78;;;16.77;32.21
49063;BME280;34876;51.464;-0.150;2023-03-05T01:46:27;102424.15;;;16.76;32.19
49063;BME280;34876;51.464;-0.150;2023-03-05T01:49:02;102418.64;;;16.78;32.13
49063;BME280;34876;51.464;-0.150;2023-03-05T01:51:36;102414.87;;;16.79;32.10
49063;BME280;34876;51.464;-0.150;2023-03-05T01:54:08;102411.04;;;16.78;32.10
49063;BME280;34876;51.464;-0.150;2023-03-05T01:56:39;102409.55;;;16.77;32.14
49063;BME280;34876;51.464;-0.150;2023-03-05T01:59:10;102409.59;;;16.78;32.08
49063;BME280;34876;51.464;-0.150;2023-03-05T02:01:43;102403.60;;;16.81;32.23
49063;BME280;34876;51.464;-0.150;2023-03-05T02:04:16;102401.90;;;16.79;32.15
49063;BME280;34876;51.464;-0.150;2023-03-05T02:06:46;102401.34;;;16.79;32.11
49063;BME280;34876;51.464;-0.150;2023-03-05T02:09:15;102398.82;;;16.77;32.13
49063;BME280;34876;51.464;-0.150;2023-03-05T02:11:45;102395.05;;;16.76;32.17
49063;BME280;34876;51.464;-0.150;2023-03-05T02:14:15;102391.43;;;16.78;32.08
49063;BME280;34876;51.464;-0.150;2023-03-05T02:16:44;102389.05;;;16.77;32.11
49063;BME280;34876;51.464;-0.150;2023-03-05T02:19:14;102383.83;;;16.78;32.05
49063;BME280;34876;51.464;-0.150;2023-03-05T02:21:46;102385.35;;;16.78;32.02
49063;BME280;34876;51.464;-0.150;2023-03-05T02:24:18;102383.75;;;16.77;32.05
49063;BME280;34876;51.464;-0.150;2023-03-05T02:27:00;102379.74;;;16.76;32.05
49063;BME280;34876;51.464;-0.150;2023-03-05T02:29:31;102373.91;;;16.77;32.02
49063;BME280;34876;51.464;-0.150;2023-03-05T02:32:01;102374.09;;;16.79;31.99
49063;BME280;34876;51.464;-0.150;2023-03-05T02:34:30;102369.28;;;16.77;32.07
49063;BME280;34876;51.464;-0.150;2023-03-05T02:36:59;102365.73;;;16.78;32.00
49063;BME280;34876;51.464;-0.150;2023-03-05T02:39:29;102361.77;;;16.78;31.98
49063;BME280;34876;51.464;-0.150;2023-03-05T02:41:58;102361.24;;;16.77;32.02
49063;BME280;34876;51.464;-0.150;2023-03-05T02:44:30;102357.57;;;16.76;32.05
49063;BME280;34876;51.464;-0.150;2023-03-05T02:46:59;102353.21;;;16.76;31.97
49063;BME280;34876;51.464;-0.150;2023-03-05T02:49:30;102352.02;;;16.77;31.98
49063;BME280;34876;51.464;-0.150;2023-03-05T02:51:59;102347.87;;;16.75;31.98
49063;BME280;34876;51.464;-0.150;2023-03-05T02:54:29;102347.00;;;16.76;31.94
49063;BME280;34876;51.464;-0.150;2023-03-05T02:56:58;102347.37;;;16.77;31.93
49063;BME280;34876;51.464;-0.150;2023-03-05T02:59:27;102344.31;;;16.77;31.97
49063;BME280;34876;51.464;-0.150;2023-03-05T03:02:08;102339.19;;;16.76;31.94
49063;BME280;34876;51.464;-0.150;2023-03-05T03:04:38;102334.44;;;16.76;31.93
49063;BME280;34876;51.464;-0.150;2023-03-05T03:07:13;102331.07;;;16.77;31.90
49063;BME280;34876;51.464;-0.150;2023-03-05T03:09:43;102325.59;;;16.77;31.93
49063;BME280;34876;51.464;-0.150;2023-03-05T03:12:13;102325.12;;;16.76;31.93
49063;BME280;34876;51.464;-0.150;2023-03-05T03:14:43;102322.15;;;16.74;31.92
49063;BME280;34876;51.464;-0.150;2023-03-05T03:17:14;102316.77;;;16.74;31.90
49063;BME280;34876;51.464;-0.150;2023-03-05T03:19:45;102314.21;;;16.76;31.90
49063;BME280;34876;51.464;-0.150;2023-03-05T03:22:15;102309.39;;;16.75;31.84
49063;BME280;34876;51.464;-0.150;2023-03-05T03:24:44;102301.30;;;16.74;31.84
49063;BME280;34876;51.464;-0.150;2023-03-05T03:27:13;102299.14;;;16.71;31.92
49063;BME280;34876;51.464;-0.150;2023-03-05T03:29:43;102294.71;;;16.72;31.90
49063;BME280;34876;51.464;-0.150;2023-03-05T03:32:12;102289.92;;;16.73;31.79
49063;BME280;34876;51.464;-0.150;2023-03-05T03:34:42;102288.20;;;16.73;31.79
49063;BME280;34876;51.464;-0.150;2023-03-05T03:37:12;102288.12;;;16.72;31.79
49063;BME280;34876;51.464;-0.150;2023-03-05T03:39:42;102286.15;;;16.75;31.77
49063;BME280;34876;51.464;-0.150;2023-03-05T03:42:11;102285.44;;;16.74;31.82
49063;BME280;34876;51.464;-0.150;2023-03-05T03:44:41;102282.44;;;16.73;31.84
49063;BME280;34876;51.464;-0.150;2023-03-05T03:47:16;102281.72;;;16.73;31.82
49063;BME280;34876;51.464;-0.150;2023-03-05T03:49:45;102275.87;;;16.72;31.80
49063;BME280;34876;51.464;-0.150;2023-03-05T03:52:14;102273.99;;;16.74;31.79
49063;BME280;34876;51.464;-0.150;2023-03-05T03:54:43;102272.56;;;16.75;31.75
49063;BME280;34876;51.464;-0.150;2023-03-05T03:57:13;102269.12;;;16.74;31.74
49063;BME280;34876;51.464;-0.150;2023-03-05T03:59:43;102266.72;;;16.74;31.78
49063;BME280;34876;51.464;-0.150;2023-03-05T04:02:12;102266.03;;;16.73;31.76
49063;BME280;34876;51.464;-0.150;2023-03-05T04:04:43;102264.07;;;16.73;31.76
49063;BME280;34876;51.464;-0.150;2023-03-05T04:07:12;102264.71;;;16.74;31.81
49063;BME280;34876;51.464;-0.150;2023-03-05T04:09:42;102266.13;;;16.73;31.72
49063;BME280;34876;51.464;-0.150;2023-03-05T04:12:12;102264.35;;;16.73;31.79
49063;BME280;34876;51.464;-0.150;2023-03-05T04:14:42;102258.87;;;16.73;31.75
49063;BME280;34876;51.464;-0.150;2023-03-05T04:17:13;102256.37;;;16.72;31.71
49063;BME280;34876;51.464;-0.150;2023-03-05T04:19:43;102256.01;;;16.71;31.77
49063;BME280;34876;51.464;-0.150;2023-03-05T04:22:13;102250.77;;;16.73;31.74
49063;BME280;34876;51.464;-0.150;2023-03-05T04:24:43;102247.14;;;16.73;31.71
49063;BME280;34876;51.464;-0.150;2023-03-05T04:27:13;102244.36;;;16.72;31.78
49063;BME280;34876;51.464;-0.150;2023-03-05T04:29:43;102245.88;;;16.72;31.83
49063;BME280;34876;51.464;-0.150;2023-03-05T04:32:13;102244.38;;;16.71;31.73
49063;BME280;34876;51.464;-0.150;2023-03-05T04:34:42;102239.89;;;16.72;31.76
49063;BME280;34876;51.464;-0.150;2023-03-05T04:37:10;102235.66;;;16.74;31.74
49063;BME280;34876;51.464;-0.150;2023-03-05T04:39:41;102233.48;;;16.74;31.74
49063;BME280;34876;51.464;-0.150;2023-03-05T04:42:10;102231.12;;;16.73;31.79
49063;BME280;34876;51.464;-0.150;2023-03-05T04:44:39;102230.31;;;16.71;31.81
49063;BME280;34876;51.464;-0.150;2023-03-05T04:47:09;102232.82;;;16.76;31.75
49063;BME280;34876;51.464;-0.150;2023-03-05T04:49:39;102230.40;;;16.74;31.75
49063;BME280;34876;51.464;-0.150;2023-03-05T04:52:10;102228.52;;;16.73;31.78
49063;BME280;34876;51.464;-0.150;2023-03-05T04:54:43;102227.47;;;16.73;31.80
49063;BME280;34876;51.464;-0.150;2023-03-05T04:57:13;102226.24;;;16.73;31.77
49063;BME280;34876;51.464;-0.150;2023-03-05T04:59:42;102221.99;;;16.73;31.81
49063;BME280;34876;51.464;-0.150;2023-03-05T05:02:11;102218.97;;;16.74;31.77
49063;BME280;34876;51.464;-0.150;2023-03-05T05:04:41;102216.01;;;16.74;31.74
49063;BME280;34876;51.464;-0.150;2023-03-05T05:07:11;102207.28;;;16.74;31.75
49063;BME280;34876;51.464;-0.150;2023-03-05T05:09:40;102204.47;;;16.75;31.75
49063;BME280;34876;51.464;-0.150;2023-03-05T05:12:09;102202.08;;;16.74;31.73
49063;BME280;34876;51.464;-0.150;2023-03-05T05:14:38;102196.86;;;16.75;31.72
49063;BME280;34876;51.464;-0.150;2023-03-05T05:17:07;102194.21;;;16.76;31.75
49063;BME280;34876;51.464;-0.150;2023-03-05T05:19:36;102191.62;;;16.75;31.70
49063;BME280;34876;51.464;-0.150;2023-03-05T05:22:05;102190.07;;;16.76;31.73
49063;BME280;34876;51.464;-0.150;2023-03-05T05:24:34;102184.06;;;16.75;31.69
49063;BME280;34876;51.464;-0.150;2023-03-05T05:27:03;102182.28;;;16.73;31.76
49063;BME280;34876;51.464;-0.150;2023-03-05T05:29:31;102179.53;;;16.73;31.72
49063;BME280;34876;51.464;-0.150;2023-03-05T05:32:01;102178.51;;;16.76;31.71
49063;BME280;34876;51.464;-0.150;2023-03-05T05:34:29;102177.40;;;16.76;31.64
49063;BME280;34876;51.464;-0.150;2023-03-05T05:36:58;102175.52;;;16.75;31.73
49063;BME280;34876;51.464;-0.150;2023-03-05T05:39:27;102177.24;;;16.76;31.73
49063;BME280;34876;51.464;-0.150;2023-03-05T05:41:57;102174.52;;;16.75;31.74
49063;BME280;34876;51.464;-0.150;2023-03-05T05:44:26;102174.40;;;16.75;31.70
49063;BME280;34876;51.464;-0.150;2023-03-05T05:46:56;102174.73;;;16.76;31.67
49063;BME280;34876;51.464;-0.150;2023-03-05T05:49:25;102172.75;;;16.74;31.73
49063;BME280;34876;51.464;-0.150;2023-03-05T05:51:54;102170.33;;;16.73;31.72
49063;BME280;34876;51.464;-0.150;2023-03-05T05:54:23;102165.47;;;16.75;31.70
49063;BME280;34876;51.464;-0.150;2023-03-05T05:56:51;102161.81;;;16.74;31.73
49063;BME280;34876;51.464;-0.150;2023-03-05T05:59:20;102157.89;;;16.74;31.69
49063;BME280;34876;51.464;-0.150;2023-03-05T06:01:49;102154.38;;;16.74;31.68
49063;BME280;34876;51.464;-0.150;2023-03-05T06:04:19;102153.89;;;16.73;31.67
49063;BME280;34876;51.464;-0.150;2023-03-05T06:06:48;102154.35;;;16.73;31.75
49063;BME280;34876;51.464;-0.150;2023-03-05T06:09:17;102155.01;;;16.73;31.65
49063;BME280;34876;51.464;-0.150;2023-03-05T06:11:46;102155.28;;;16.76;31.65
49063;BME280;34876;51.464;-0.150;2023-03-05T06:14:16;102154.46;;;16.75;31.65
49063;BME280;34876;51.464;-0.150;2023-03-05T06:16:45;102155.99;;;16.74;31.60
49063;BME280;34876;51.464;-0.150;2023-03-05T06:19:14;102159.52;;;16.72;31.59
49063;BME280;34876;51.464;-0.150;2023-03-05T06:21:45;102160.56;;;16.75;31.60
49063;BME280;34876;51.464;-0.150;2023-03-05T06:24:14;102162.49;;;16.71;31.66
49063;BME280;34876;51.464;-0.150;2023-03-05T06:26:44;102161.74;;;16.73;31.66
49063;BME280;34876;51.464;-0.150;2023-03-05T06:29:14;102157.87;;;16.73;31.65
49063;BME280;34876;51.464;-0.150;2023-03-05T06:31:44;102152.66;;;16.74;31.57
49063;BME280;34876;51.464;-0.150;2023-03-05T06:34:13;102147.72;;;16.72;31.65
49063;BME280;34876;51.464;-0.150;2023-03-05T06:36:42;102146.76;;;16.73;31.56
49063;BME280;34876;51.464;-0.150;2023-03-05T06:39:11;102148.11;;;16.75;31.57
49063;BME280;34876;51.464;-0.150;2023-03-05T06:41:40;102148.73;;;16.72;31.57
49063;BME280;34876;51.464;-0.150;2023-03-05T06:44:09;102145.80;;;16.73;31.62
49063;BME280;34876;51.464;-0.150;2023-03-05T06:46:38;102143.22;;;16.73;31.64
49063;BME280;34876;51.464;-0.150;2023-03-05T06:49:08;102139.47;;;16.72;31.65
49063;BME280;34876;51.464;-0.150;2023-03-05T06:51:39;102141.06;;;16.71;31.66
49063;BME280;34876;51.464;-0.150;2023-03-05T06:54:10;102141.49;;;16.73;31.57
49063;BME280;34876;51.464;-0.150;2023-03-05T06:56:41;102139.56;;;16.72;31.62
49063;BME280;34876;51.464;-0.150;2023-03-05T06:59:12;102139.42;;;16.73;31.52
49063;BME280;34876;51.464;-0.150;2023-03-05T07:01:41;102140.03;;;16.74;31.48
49063;BME280;34876;51.464;-0.150;2023-03-05T07:04:11;102142.21;;;16.76;31.52
49063;BME280;34876;51.464;-0.150;2023-03-05T07:06:41;102138.85;;;16.72;31.60
49063;BME280;34876;51.464;-0.150;2023-03-05T07:09:13;102138.71;;;16.73;31.45
49063;BME280;34876;51.464;-0.150;2023-03-05T07:11:43;102141.80;;;16.73;31.53
49063;BME280;34876;51.464;-0.150;2023-03-05T07:14:12;102137.40;;;16.72;31.53
49063;BME280;34876;51.464;-0.150;2023-03-05T07:16:40;102137.87;;;16.71;31.46
49063;BME280;34876;51.464;-0.150;2023-03-05T07:19:10;102138.89;;;16.75;31.48
49063;BME280;34876;51.464;-0.150;2023-03-05T07:21:39;102137.92;;;16.73;31.42
49063;BME280;34876;51.464;-0.150;2023-03-05T07:24:11;102137.33;;;16.72;31.47
49063;BME280;34876;51.464;-0.150;2023-03-05T07:26:40;102138.01;;;16.74;31.45
49063;BME280;34876;51.464;-0.150;2023-03-05T07:29:09;102130.98;;;16.74;31.34
49063;BME280;34876;51.464;-0.150;2023-03-05T07:31:38;102128.80;;;16.76;31.42
49063;BME280;34876;51.464;-0.150;2023-03-05T07:34:08;102128.63;;;16.74;31.38
49063;BME280;34876;51.464;-0.150;2023-03-05T07:36:38;102126.88;;;16.75;31.44
49063;BME280;34876;51.464;-0.150;2023-03-05T07:39:09;102122.63;;;16.75;31.36
49063;BME280;34876;51.464;-0.150;2023-03-05T07:41:38;102116.04;;;16.73;31.37
49063;BME280;34876;51.464;-0.150;2023-03-05T07:44:08;102121.07;;;16.73;31.38
49063;BME280;34876;51.464;-0.150;2023-03-05T07:46:37;102118.89;;;16.73;31.39
49063;BME280;34876;51.464;-0.150;2023-03-05T07:49:06;102116.97;;;16.76;31.23
49063;BME280;34876;51.464;-0.150;2023-03-05T07:51:36;102124.56;;;16.74;31.36
49063;BME280;34876;51.464;-0.150;2023-03-05T07:54:05;102125.93;;;16.77;31.28
49063;BME280;34876;51.464;-0.150;2023-03-05T07:56:34;102123.60;;;16.76;31.20
49063;BME280;34876;51.464;-0.150;2023-03-05T07:59:05;102120.38;;;16.76;31.30
49063;BME280;34876;51.464;-0.150;2023-03-05T08:01:35;102120.27;;;16.75;31.25
49063;BME280;34876;51.464;-0.150;2023-03-05T08:04:06;102117.93;;;16.75;31.24
49063;BME280;34876;51.464;-0.150;2023-03-05T08:06:38;102117.68;;;16.76;31.19
49063;BME280;34876;51.464;-0.150;2023-03-05T08:09:07;102119.54;;;16.75;31.20
49063;BME280;34876;51.464;-0.150;2023-03-05T08:11:37;102118.95;;;16.77;31.16
49063;BME280;34876;51.464;-0.150;2023-03-05T08:14:07;102114.25;;;16.75;31.16
49063;BME280;34876;51.464;-0.150;2023-03-05T08:16:38;102108.74;;;16.74;31.15
49063;BME280;34876;51.464;-0.150;2023-03-05T08:19:08;102105.67;;;16.76;31.15
49063;BME280;34876;51.464;-0.150;2023-03-05T08:21:37;102105.26;;;16.77;31.11
49063;BME280;34876;51.464;-0.150;2023-03-05T08:24:09;102105.37;;;16.79;31.03
49063;BME280;34876;51.464;-0.150;2023-03-05T08:26:39;102102.64;;;16.76;31.06
49063;BME280;34876;51.464;-0.150;2023-03-05T08:29:10;102104.47;;;16.77;31.08
49063;BME280;34876;51.464;-0.150;2023-03-05T08:31:39;102104.50;;;16.76;31.08
49063;BME280;34876;51.464;-0.150;2023-03-05T08:34:08;102104.61;;;16.78;30.99
49063;BME280;34876;51.464;-0.150;2023-03-05T08:36:37;102108.50;;;16.39;31.37
49063;BME280;34876;51.464;-0.150;2023-03-05T08:39:06;102097.36;;;16.71;31.10
49063;BME280;34876;51.464;-0.150;2023-03-05T08:41:35;102093.98;;;16.76;31.02
49063;BME280;34876;51.464;-0.150;2023-03-05T08:44:04;102095.60;;;16.80;30.96
49063;BME280;34876;51.464;-0.150;2023-03-05T08:46:33;102095.58;;;16.81;30.87
49063;BME280;34876;51.464;-0.150;2023-03-05T08:49:02;102096.47;;;16.81;30.93
49063;BME280;34876;51.464;-0.150;2023-03-05T08:51:31;102093.55;;;16.80;30.81
49063;BME280;34876;51.464;-0.150;2023-03-05T08:54:00;102093.16;;;16.82;30.90
49063;BME280;34876;51.464;-0.150;2023-03-05T08:56:29;102090.64;;;16.82;30.86
49063;BME280;34876;51.464;-0.150;2023-03-05T08:58:58;102085.79;;;16.84;30.92
49063;BME280;34876;51.464;-0.150;2023-03-05T09:01:32;102082.37;;;16.82;30.87
49063;BME280;34876;51.464;-0.150;2023-03-05T09:04:01;102080.77;;;16.79;30.82
49063;BME280;34876;51.464;-0.150;2023-03-05T09:06:30;102077.39;;;16.83;30.83
49063;BME280;34876;51.464;-0.150;2023-03-05T09:09:00;102075.41;;;16.81;30.83
49063;BME280;34876;51.464;-0.150;2023-03-05T09:11:29;102069.12;;;16.84;30.82
49063;BME280;34876;51.464;-0.150;2023-03-05T09:13:58;102067.30;;;16.84;30.80
49063;BME280;34876;51.464;-0.150;2023-03-05T09:16:27;102061.51;;;16.77;30.87
49063;BME280;34876;51.464;-0.150;2023-03-05T09:18:57;102057.48;;;16.81;30.84
49063;BME280;34876;51.464;-0.150;2023-03-05T09:21:26;102055.12;;;16.84;30.77
49063;BME280;34876;51.464;-0.150;2023-03-05T09:23:55;102050.98;;;16.52;31.25
49063;BME280;34876;51.464;-0.150;2023-03-05T09:26:24;102050.11;;;16.83;30.85
49063;BME280;34876;51.464;-0.150;2023-03-05T09:28:54;102048.72;;;16.87;30.72
49063;BME280;34876;51.464;-0.150;2023-03-05T09:31:23;102050.48;;;16.86;30.73
49063;BME280;34876;51.464;-0.150;2023-03-05T09:33:53;102049.23;;;16.88;30.71
49063;BME280;34876;51.464;-0.150;2023-03-05T09:36:24;102045.93;;;16.86;30.68
49063;BME280;34876;51.464;-0.150;2023-03-05T09:38:54;102038.48;;;16.79;30.79
49063;BME280;34876;51.464;-0.150;2023-03-05T09:41:29;102037.34;;;16.86;30.74
49063;BME280;34876;51.464;-0.150;2023-03-05T09:44:08;102032.97;;;16.88;30.67
49063;BME280;34876;51.464;-0.150;2023-03-05T09:46:50;102030.36;;;16.90;30.65
49063;BME280;34876;51.464;-0.150;2023-03-05T09:49:29;102029.89;;;16.55;31.26
49063;BME280;34876;51.464;-0.150;2023-03-05T09:52:04;102020.81;;;16.84;30.75
49063;BME280;34876;51.464;-0.150;2023-03-05T09:54:39;102020.31;;;16.88;30.62
49063;BME280;34876;51.464;-0.150;2023-03-05T09:57:15;102019.85;;;16.88;30.60
49063;BME280;34876;51.464;-0.150;2023-03-05T09:59:48;102024.33;;;16.90;30.68
49063;BME280;34876;51.464;-0.150;2023-03-05T10:02:24;102024.44;;;16.88;30.74
49063;BME280;34876;51.464;-0.150;2023-03-05T10:04:59;102019.87;;;16.89;30.66
49063;BME280;34876;51.464;-0.150;2023-03-05T10:07:33;102017.75;;;16.91;30.59
49063;BME280;34876;51.464;-0.150;2023-03-05T10:10:09;102014.38;;;16.38;30.84
49063;BME280;34876;51.464;-0.150;2023-03-05T10:12:43;102007.98;;;16.85;30.92
49063;BME280;34876;51.464;-0.150;2023-03-05T10:15:15;102003.08;;;16.65;31.12
49063;BME280;34876;51.464;-0.150;2023-03-05T10:17:55;102001.20;;;16.88;30.67
49063;BME280;34876;51.464;-0.150;2023-03-05T10:21:00;101996.26;;;16.91;30.62
49063;BME280;34876;51.464;-0.150;2023-03-05T10:23:38;101988.68;;;16.90;30.62
49063;BME280;34876;51.464;-0.150;2023-03-05T10:26:43;101988.62;;;16.94;30.62
49063;BME280;34876;51.464;-0.150;2023-03-05T10:29:34;101989.50;;;16.96;30.56
49063;BME280;34876;51.464;-0.150;2023-03-05T10:32:17;101982.82;;;16.91;30.60
49063;BME280;34876;51.464;-0.150;2023-03-05T10:35:05;101982.22;;;16.95;30.62
49063;BME280;34876;51.464;-0.150;2023-03-05T10:37:57;101972.27;;;16.76;29.74
49063;BME280;34876;51.464;-0.150;2023-03-05T10:40:31;101968.63;;;16.91;30.56
49063;BME280;34876;51.464;-0.150;2023-03-05T10:43:11;101963.77;;;16.95;30.48
49063;BME280;34876;51.464;-0.150;2023-03-05T10:45:44;101964.53;;;16.98;30.48
49063;BME280;34876;51.464;-0.150;2023-03-05T10:48:24;101959.66;;;16.58;30.23
49063;BME280;34876;51.464;-0.150;2023-03-05T10:50:59;101960.74;;;16.94;30.56
49063;BME280;34876;51.464;-0.150;2023-03-05T10:53:32;101956.71;;;16.79;30.77
49063;BME280;34876;51.464;-0.150;2023-03-05T10:56:05;101947.49;;;16.88;30.61
49063;BME280;34876;51.464;-0.150;2023-03-05T10:58:34;101946.73;;;16.89;30.55
49063;BME280;34876;51.464;-0.150;2023-03-05T11:01:17;101946.26;;;16.96;30.48
49063;BME280;34876;51.464;-0.150;2023-03-05T11:03:49;101938.89;;;16.97;30.50
49063;BME280;34876;51.464;-0.150;2023-03-05T11:06:27;101938.76;;;16.92;30.58
49063;BME280;34876;51.464;-0.150;2023-03-05T11:09:15;101940.57;;;16.94;30.54
49063;BME280;34876;51.464;-0.150;2023-03-05T11:12:03;101942.44;;;16.95;30.54
49063;BME280;34876;51.464;-0.150;2023-03-05T11:14:33;101934.04;;;16.93;30.57
49063;BME280;34876;51.464;-0.150;2023-03-05T11:17:23;101925.10;;;16.91;30.68
49063;BME280;34876;51.464;-0.150;2023-03-05T11:19:53;101925.73;;;16.85;30.67
49063;BME280;34876;51.464;-0.150;2023-03-05T11:22:24;101923.75;;;16.64;31.10
49063;BME280;34876;51.464;-0.150;2023-03-05T11:25:13;101917.14;;;16.89;30.72
49063;BME280;34876;51.464;-0.150;2023-03-05T11:27:48;101912.49;;;16.89;30.39
49063;BME280;34876;51.464;-0.150;2023-03-05T11:30:20;101905.43;;;16.84;30.75
49063;BME280;34876;51.464;-0.150;2023-03-05T11:32:49;101910.40;;;16.88;30.67
49063;BME280;34876;51.464;-0.150;2023-03-05T11:35:38;101909.93;;;16.91;30.55
49063;BME280;34876;51.464;-0.150;2023-03-05T11:38:18;101902.25;;;16.90;30.61
49063;BME280;34876;51.464;-0.150;2023-03-05T11:40:47;101897.31;;;16.67;30.95
49063;BME280;34876;51.464;-0.150;2023-03-05T11:43:18;101891.58;;;16.86;30.73
49063;BME280;34876;51.464;-0.150;2023-03-05T11:45:51;101889.32;;;16.87;30.69
49063;BME280;34876;51.464;-0.150;2023-03-05T11:48:25;101887.78;;;16.90;30.84
49063;BME280;34876;51.464;-0.150;2023-03-05T11:51:00;101885.47;;;16.88;30.72
49063;BME280;34876;51.464;-0.150;2023-03-05T11:53:33;101884.67;;;16.87;30.71
49063;BME280;34876;51.464;-0.150;2023-03-05T11:56:05;101883.58;;;16.84;30.77
49063;BME280;34876;51.464;-0.150;2023-03-05T11:58:47;101879.02;;;16.88;30.67
49063;BME280;34876;51.464;-0.150;2023-03-05T12:01:21;101874.35;;;16.79;30.82
49063;BME280;34876;51.464;-0.150;2023-03-05T12:03:52;101869.86;;;16.87;30.65
49063;BME280;34876;51.464;-0.150;2023-03-05T12:06:28;101868.16;;;16.86;30.71
49063;BME280;34876;51.464;-0.150;2023-03-05T12:09:00;101862.42;;;16.80;30.69
49063;BME280;34876;51.464;-0.150;2023-03-05T12:11:32;101859.69;;;16.77;30.60
49063;BME280;34876;51.464;-0.150;2023-03-05T12:14:05;101855.71;;;16.84;30.60
49063;BME280;34876;51.464;-0.150;2023-03-05T12:16:39;101853.97;;;16.44;30.86
49063;BME280;34876;51.464;-0.150;2023-03-05T12:19:39;101847.88;;;16.81;30.71
49063;BME280;34876;51.464;-0.150;2023-03-05T12:22:17;101843.79;;;16.85;30.61
49063;BME280;34876;51.464;-0.150;2023-03-05T12:24:49;101835.38;;;16.82;30.64
49063;BME280;34876;51.464;-0.150;2023-03-05T12:27:33;101829.18;;;16.84;30.52
49063;BME280;34876;51.464;-0.150;2023-03-05T12:30:04;101821.50;;;16.83;30.57
49063;BME280;34876;51.464;-0.150;2023-03-05T12:33:00;101812.70;;;16.82;30.59
49063;BME280;34876;51.464;-0.150;2023-03-05T12:35:34;101806.94;;;16.84;30.58
49063;BME280;34876;51.464;-0.150;2023-03-05T12:38:18;101800.87;;;16.84;30.58
49063;BME280;34876;51.464;-0.150;2023-03-05T12:41:33;101798.04;;;16.81;30.59
49063;BME280;34876;51.464;-0.150;2023-03-05T12:44:19;101786.37;;;16.86;30.49
49063;BME280;34876;51.464;-0.150;2023-03-05T12:47:21;101771.55;;;16.90;30.45
49063;BME280;34876;51.464;-0.150;2023-03-05T12:49:51;101764.50;;;16.89;30.36
49063;BME280;34876;51.464;-0.150;2023-03-05T12:52:24;101759.18;;;16.91;30.33
49063;BME280;34876;51.464;-0.150;2023-03-05T12:55:00;101754.19;;;16.90;30.36
49063;BME280;34876;51.464;-0.150;2023-03-05T12:57:35;101749.70;;;16.90;30.36
49063;BME280;34876;51.464;-0.150;2023-03-05T13:00:10;101745.88;;;16.89;30.37
49063;BME280;34876;51.464;-0.150;2023-03-05T13:02:43;101736.21;;;16.88;30.37
49063;BME280;34876;51.464;-0.150;2023-03-05T13:05:19;101730.34;;;16.88;30.24
49063;BME280;34876;51.464;-0.150;2023-03-05T13:07:51;101723.02;;;16.88;30.31